sensor_id;sensor_type;location;lat;lon;timestamp;P1;durP1;ratioP1;P2;durP2;ratioP2
76439;SDS011;65274;44.982;20.060;2023-04-15T00:01:11;15.57;;;10.25;;
76439;SDS011;65274;44.982;20.060;2023-04-15T00:03:42;15.10;;;11.90;;
76439;SDS011;65274;44.982;20.060;2023-04-15T00:06:09;14.63;;;11.02;;
76439;SDS011;65274;44.982;20.060;2023-04-15T00:08:35;18.00;;;13.07;;
76439;SDS011;65274;44.982;20.060;2023-04-15T00:11:01;26.90;;;16.13;;
76439;SDS011;65274;44.982;20.060;2023-04-15T00:15:55;28.77;;;15.60;;
76439;SDS011;65274;44.982;20.060;2023-04-15T00:18:22;24.50;;;16.70;;
76439;SDS011;65274;44.982;20.060;2023-04-15T00:20:48;29.77;;;19.08;;
76439;SDS011;65274;44.982;20.060;2023-04-15T00:23:14;27.45;;;16.48;;
76439;SDS011;65274;44.982;20.060;2023-04-15T00:25:40;21.50;;;15.63;;
76439;SDS011;65274;44.982;20.060;2023-04-15T00:28:06;21.92;;;14.57;;
76439;SDS011;65274;44.982;20.060;2023-04-15T00:30:33;21.48;;;15.27;;
76439;SDS011;65274;44.982;20.060;2023-04-15T00:32:59;23.60;;;16.05;;
76439;SDS011;65274;44.982;20.060;2023-04-15T00:35:26;19.20;;;14.07;;
76439;SDS011;65274;44.982;20.060;2023-04-15T00:37:52;25.27;;;15.60;;
76439;SDS011;65274;44.982;20.060;2023-04-15T00:40:20;19.50;;;14.90;;
76439;SDS011;65274;44.982;20.060;2023-04-15T00:42:48;22.52;;;15.00;;
76439;SDS011;65274;44.982;20.060;2023-04-15T00:45:14;24.92;;;16.88;;
76439;SDS011;65274;44.982;20.060;2023-04-15T00:47:41;25.48;;;16.38;;
76439;SDS011;65274;44.982;20.060;2023-04-15T00:50:08;29.27;;;16.02;;
76439;SDS011;65274;44.982;20.060;2023-04-15T00:52:34;22.08;;;14.65;;
76439;SDS011;65274;44.982;20.060;2023-04-15T00:55:01;17.63;;;12.18;;
76439;SDS011;65274;44.982;20.060;2023-04-15T00:57:28;20.35;;;12.57;;
76439;SDS011;65274;44.982;20.060;2023-04-15T00:59:55;17.27;;;12.65;;
76439;SDS011;65274;44.982;20.060;2023-04-15T01:02:21;19.00;;;13.05;;
76439;SDS011;65274;44.982;20.060;2023-04-15T01:04:47;16.08;;;11.85;;
76439;SDS011;65274;44.982;20.060;2023-04-15T01:07:14;19.88;;;12.45;;
76439;SDS011;65274;44.982;20.060;2023-04-15T01:09:40;19.95;;;13.65;;
76439;SDS011;65274;44.982;20.060;2023-04-15T01:12:06;19.30;;;11.70;;
76439;SDS011;65274;44.982;20.060;2023-04-15T01:14:35;22.30;;;12.57;;
76439;SDS011;65274;44.982;20.060;2023-04-15T01:17:01;20.02;;;13.38;;
76439;SDS011;65274;44.982;20.060;2023-04-15T01:19:27;17.75;;;12.73;;
76439;SDS011;65274;44.982;20.060;2023-04-15T01:21:53;18.92;;;13.07;;
76439;SDS011;65274;44.982;20.060;2023-04-15T01:24:20;19.50;;;12.93;;
76439;SDS011;65274;44.982;20.060;2023-04-15T01:26:46;21.55;;;12.18;;
76439;SDS011;65274;44.982;20.060;2023-04-15T01:29:13;21.20;;;14.15;;
76439;SDS011;65274;44.982;20.060;2023-04-15T01:31:39;20.17;;;13.73;;
76439;SDS011;65274;44.982;20.060;2023-04-15T01:34:06;24.02;;;15.27;;
76439;SDS011;65274;44.982;20.060;2023-04-15T01:36:32;23.13;;;13.98;;
76439;SDS011;65274;44.982;20.060;2023-04-15T01:38:58;23.63;;;15.13;;
76439;SDS011;65274;44.982;20.060;2023-04-15T01:41:25;28.40;;;15.10;;
76439;SDS011;65274;44.982;20.060;2023-04-15T01:43:51;22.30;;;14.65;;
76439;SDS011;65274;44.982;20.060;2023-04-15T01:46:17;23.65;;;13.80;;
76439;SDS011;65274;44.982;20.060;2023-04-15T01:48:44;18.67;;;12.50;;
76439;SDS011;65274;44.982;20.060;2023-04-15T01:51:10;21.35;;;15.05;;
76439;SDS011;65274;44.982;20.060;2023-04-15T01:53:36;20.25;;;13.52;;
76439;SDS011;65274;44.982;20.060;2023-04-15T01:56:03;20.83;;;13.77;;
76439;SDS011;65274;44.982;20.060;2023-04-15T01:58:29;22.02;;;15.75;;
76439;SDS011;65274;44.982;20.060;2023-04-15T02:00:55;31.80;;;18.77;;
76439;SDS011;65274;44.982;20.060;2023-04-15T02:03:21;27.95;;;18.70;;
76439;SDS011;65274;44.982;20.060;2023-04-15T02:05:47;31.48;;;21.10;;
76439;SDS011;65274;44.982;20.060;2023-04-15T02:08:15;27.48;;;19.13;;
76439;SDS011;65274;44.982;20.060;2023-04-15T02:10:41;24.13;;;16.40;;
76439;SDS011;65274;44.982;20.060;2023-04-15T02:13:07;21.50;;;14.90;;
76439;SDS011;65274;44.982;20.060;2023-04-15T02:15:34;23.35;;;14.63;;
76439;SDS011;65274;44.982;20.060;2023-04-15T02:18:01;23.60;;;16.20;;
76439;SDS011;65274;44.982;20.060;2023-04-15T02:20:27;26.50;;;15.82;;
76439;SDS011;65274;44.982;20.060;2023-04-15T02:22:54;27.80;;;16.27;;
76439;SDS011;65274;44.982;20.060;2023-04-15T02:25:21;25.42;;;15.35;;
76439;SDS011;65274;44.982;20.060;2023-04-15T02:27:47;21.67;;;15.20;;
76439;SDS011;65274;44.982;20.060;2023-04-15T02:30:13;23.90;;;14.10;;
76439;SDS011;65274;44.982;20.060;2023-04-15T02:32:39;36.85;;;20.40;;
76439;SDS011;65274;44.982;20.060;2023-04-15T02:35:08;42.35;;;25.30;;
76439;SDS011;65274;44.982;20.060;2023-04-15T02:37:36;31.13;;;19.10;;
76439;SDS011;65274;44.982;20.060;2023-04-15T02:40:07;34.50;;;20.20;;
76439;SDS011;65274;44.982;20.060;2023-04-15T02:42:40;35.33;;;19.92;;
76439;SDS011;65274;44.982;20.060;2023-04-15T02:45:08;34.88;;;20.65;;
76439;SDS011;65274;44.982;20.060;2023-04-15T02:47:36;38.15;;;20.63;;
76439;SDS011;65274;44.982;20.060;2023-04-15T02:50:06;37.53;;;20.98;;
76439;SDS011;65274;44.982;20.060;2023-04-15T02:52:33;31.13;;;19.83;;
76439;SDS011;65274;44.982;20.060;2023-04-15T02:54:59;31.73;;;20.42;;
76439;SDS011;65274;44.982;20.060;2023-04-15T02:57:26;34.75;;;21.25;;
76439;SDS011;65274;44.982;20.060;2023-04-15T02:59:53;34.78;;;20.25;;
76439;SDS011;65274;44.982;20.060;2023-04-15T03:02:19;34.03;;;20.70;;
76439;SDS011;65274;44.982;20.060;2023-04-15T03:04:45;34.75;;;21.60;;
76439;SDS011;65274;44.982;20.060;2023-04-15T03:07:12;29.83;;;18.65;;
76439;SDS011;65274;44.982;20.060;2023-04-15T03:09:38;30.25;;;19.67;;
76439;SDS011;65274;44.982;20.060;2023-04-15T03:12:05;31.67;;;19.35;;
76439;SDS011;65274;44.982;20.060;2023-04-15T03:14:31;25.63;;;18.00;;
76439;SDS011;65274;44.982;20.060;2023-04-15T03:16:57;28.98;;;18.08;;
76439;SDS011;65274;44.982;20.060;2023-04-15T03:19:23;26.70;;;16.38;;
76439;SDS011;65274;44.982;20.060;2023-04-15T03:21:50;28.83;;;16.60;;
76439;SDS011;65274;44.982;20.060;2023-04-15T03:24:16;28.10;;;17.25;;
76439;SDS011;65274;44.982;20.060;2023-04-15T03:26:42;27.33;;;17.52;;
76439;SDS011;65274;44.982;20.060;2023-04-15T03:29:08;28.30;;;17.83;;
76439;SDS011;65274;44.982;20.060;2023-04-15T03:31:34;23.58;;;16.90;;
76439;SDS011;65274;44.982;20.060;2023-04-15T03:34:00;24.52;;;15.57;;
76439;SDS011;65274;44.982;20.060;2023-04-15T03:36:28;26.25;;;16.88;;
76439;SDS011;65274;44.982;20.060;2023-04-15T03:38:56;27.90;;;18.10;;
76439;SDS011;65274;44.982;20.060;2023-04-15T03:41:22;23.92;;;16.95;;
76439;SDS011;65274;44.982;20.060;2023-04-15T03:43:48;27.38;;;16.23;;
76439;SDS011;65274;44.982;20.060;2023-04-15T03:46:16;28.48;;;17.30;;
76439;SDS011;65274;44.982;20.060;2023-04-15T03:48:42;23.73;;;15.10;;
76439;SDS011;65274;44.982;20.060;2023-04-15T03:51:08;27.60;;;17.83;;
76439;SDS011;65274;44.982;20.060;2023-04-15T03:53:35;25.83;;;16.45;;
76439;SDS011;65274;44.982;20.060;2023-04-15T03:56:01;30.33;;;16.80;;
76439;SDS011;65274;44.982;20.060;2023-04-15T03:58:27;27.80;;;15.90;;
76439;SDS011;65274;44.982;20.060;2023-04-15T04:00:53;33.50;;;19.67;;
76439;SDS011;65274;44.982;20.060;2023-04-15T04:03:19;31.00;;;16.80;;
76439;SDS011;65274;44.982;20.060;2023-04-15T04:05:45;27.55;;;16.70;;
76439;SDS011;65274;44.982;20.060;2023-04-15T04:08:11;26.88;;;17.67;;
76439;SDS011;65274;44.982;20.060;2023-04-15T04:10:38;29.08;;;17.92;;
76439;SDS011;65274;44.982;20.060;2023-04-15T04:13:04;27.95;;;16.60;;
76439;SDS011;65274;44.982;20.060;2023-04-15T04:15:31;32.50;;;19.25;;
76439;SDS011;65274;44.982;20.060;2023-04-15T04:17:57;25.08;;;16.02;;
76439;SDS011;65274;44.982;20.060;2023-04-15T04:20:23;28.95;;;17.38;;
76439;SDS011;65274;44.982;20.060;2023-04-15T04:22:49;24.08;;;15.45;;
76439;SDS011;65274;44.982;20.060;2023-04-15T04:25:15;27.88;;;18.10;;
76439;SDS011;65274;44.982;20.060;2023-04-15T04:27:41;24.95;;;16.52;;
76439;SDS011;65274;44.982;20.060;2023-04-15T04:30:07;23.98;;;15.40;;
76439;SDS011;65274;44.982;20.060;2023-04-15T04:32:33;28.40;;;16.13;;
76439;SDS011;65274;44.982;20.060;2023-04-15T04:35:00;28.92;;;15.88;;
76439;SDS011;65274;44.982;20.060;2023-04-15T04:37:26;23.92;;;15.25;;
76439;SDS011;65274;44.982;20.060;2023-04-15T04:39:52;25.58;;;16.17;;
76439;SDS011;65274;44.982;20.060;2023-04-15T04:42:18;23.90;;;14.65;;
76439;SDS011;65274;44.982;20.060;2023-04-15T04:44:44;24.00;;;16.20;;
76439;SDS011;65274;44.982;20.060;2023-04-15T04:47:10;30.52;;;18.38;;
76439;SDS011;65274;44.982;20.060;2023-04-15T04:49:36;31.15;;;18.77;;
76439;SDS011;65274;44.982;20.060;2023-04-15T04:52:02;39.30;;;23.67;;
76439;SDS011;65274;44.982;20.060;2023-04-15T04:54:28;45.75;;;27.48;;
76439;SDS011;65274;44.982;20.060;2023-04-15T04:56:55;47.00;;;27.30;;
76439;SDS011;65274;44.982;20.060;2023-04-15T04:59:22;43.30;;;26.05;;
76439;SDS011;65274;44.982;20.060;2023-04-15T05:01:48;45.47;;;25.10;;
76439;SDS011;65274;44.982;20.060;2023-04-15T05:04:14;42.85;;;26.00;;
76439;SDS011;65274;44.982;20.060;2023-04-15T05:06:40;40.58;;;25.67;;
76439;SDS011;65274;44.982;20.060;2023-04-15T05:09:06;39.63;;;25.63;;
76439;SDS011;65274;44.982;20.060;2023-04-15T05:11:32;51.20;;;26.70;;
76439;SDS011;65274;44.982;20.060;2023-04-15T05:13:58;34.58;;;23.55;;
76439;SDS011;65274;44.982;20.060;2023-04-15T05:16:26;35.15;;;21.90;;
76439;SDS011;65274;44.982;20.060;2023-04-15T05:18:52;39.20;;;22.35;;
76439;SDS011;65274;44.982;20.060;2023-04-15T05:21:18;28.77;;;19.38;;
76439;SDS011;65274;44.982;20.060;2023-04-15T05:23:44;27.65;;;17.70;;
76439;SDS011;65274;44.982;20.060;2023-04-15T05:26:11;30.33;;;18.95;;
76439;SDS011;65274;44.982;20.060;2023-04-15T05:28:37;30.20;;;17.42;;
76439;SDS011;65274;44.982;20.060;2023-04-15T05:31:03;23.90;;;16.38;;
76439;SDS011;65274;44.982;20.060;2023-04-15T05:33:29;22.55;;;15.00;;
76439;SDS011;65274;44.982;20.060;2023-04-15T05:35:55;22.50;;;15.38;;
76439;SDS011;65274;44.982;20.060;2023-04-15T05:38:21;16.50;;;12.30;;
76439;SDS011;65274;44.982;20.060;2023-04-15T05:40:47;16.02;;;11.65;;
76439;SDS011;65274;44.982;20.060;2023-04-15T05:43:13;16.58;;;11.65;;
76439;SDS011;65274;44.982;20.060;2023-04-15T05:45:39;18.42;;;12.30;;
76439;SDS011;65274;44.982;20.060;2023-04-15T05:48:06;13.55;;;10.60;;
76439;SDS011;65274;44.982;20.060;2023-04-15T05:50:32;16.10;;;11.25;;
76439;SDS011;65274;44.982;20.060;2023-04-15T05:52:58;13.88;;;11.18;;
76439;SDS011;65274;44.982;20.060;2023-04-15T05:55:24;16.00;;;9.68;;
76439;SDS011;65274;44.982;20.060;2023-04-15T05:57:51;14.13;;;10.10;;
76439;SDS011;65274;44.982;20.060;2023-04-15T06:00:17;15.95;;;9.90;;
76439;SDS011;65274;44.982;20.060;2023-04-15T06:02:44;15.90;;;9.63;;
76439;SDS011;65274;44.982;20.060;2023-04-15T06:05:10;13.27;;;9.68;;
76439;SDS011;65274;44.982;20.060;2023-04-15T06:07:36;12.38;;;9.13;;
76439;SDS011;65274;44.982;20.060;2023-04-15T06:10:03;13.15;;;8.75;;
76439;SDS011;65274;44.982;20.060;2023-04-15T06:12:29;11.05;;;8.52;;
76439;SDS011;65274;44.982;20.060;2023-04-15T06:14:56;11.95;;;8.52;;
76439;SDS011;65274;44.982;20.060;2023-04-15T06:17:22;9.90;;;6.50;;
76439;SDS011;65274;44.982;20.060;2023-04-15T06:19:48;8.13;;;5.93;;
76439;SDS011;65274;44.982;20.060;2023-04-15T06:22:19;8.43;;;4.57;;
76439;SDS011;65274;44.982;20.060;2023-04-15T06:24:45;29.98;;;13.10;;
76439;SDS011;65274;44.982;20.060;2023-04-15T06:27:12;8.23;;;5.75;;
76439;SDS011;65274;44.982;20.060;2023-04-15T06:29:38;4.22;;;3.78;;
76439;SDS011;65274;44.982;20.060;2023-04-15T06:32:04;27.60;;;14.25;;
76439;SDS011;65274;44.982;20.060;2023-04-15T06:34:30;16.98;;;10.13;;
76439;SDS011;65274;44.982;20.060;2023-04-15T06:36:56;12.80;;;7.25;;
76439;SDS011;65274;44.982;20.060;2023-04-15T06:39:22;9.23;;;4.80;;
76439;SDS011;65274;44.982;20.060;2023-04-15T06:41:49;21.33;;;8.55;;
76439;SDS011;65274;44.982;20.060;2023-04-15T06:44:15;6.95;;;4.30;;
76439;SDS011;65274;44.982;20.060;2023-04-15T06:46:41;3.60;;;2.42;;
76439;SDS011;65274;44.982;20.060;2023-04-15T06:49:07;5.45;;;2.95;;
76439;SDS011;65274;44.982;20.060;2023-04-15T06:51:33;3.38;;;2.72;;
76439;SDS011;65274;44.982;20.060;2023-04-15T06:54:00;2.35;;;1.75;;
76439;SDS011;65274;44.982;20.060;2023-04-15T06:56:29;3.50;;;2.63;;
76439;SDS011;65274;44.982;20.060;2023-04-15T06:58:55;3.15;;;2.33;;
76439;SDS011;65274;44.982;20.060;2023-04-15T07:01:21;3.47;;;2.13;;
76439;SDS011;65274;44.982;20.060;2023-04-15T07:03:48;3.42;;;2.70;;
76439;SDS011;65274;44.982;20.060;2023-04-15T07:06:14;4.78;;;1.92;;
76439;SDS011;65274;44.982;20.060;2023-04-15T07:08:40;1.90;;;1.70;;
76439;SDS011;65274;44.982;20.060;2023-04-15T07:11:06;2.47;;;1.83;;
76439;SDS011;65274;44.982;20.060;2023-04-15T07:13:33;1.83;;;1.50;;
76439;SDS011;65274;44.982;20.060;2023-04-15T07:15:59;4.45;;;2.13;;
76439;SDS011;65274;44.982;20.060;2023-04-15T07:18:25;3.97;;;2.10;;
76439;SDS011;65274;44.982;20.060;2023-04-15T07:20:51;3.80;;;2.20;;
76439;SDS011;65274;44.982;20.060;2023-04-15T07:23:17;3.03;;;2.13;;
76439;SDS011;65274;44.982;20.060;2023-04-15T07:25:43;4.03;;;2.50;;
76439;SDS011;65274;44.982;20.060;2023-04-15T07:28:09;4.55;;;2.20;;
76439;SDS011;65274;44.982;20.060;2023-04-15T07:30:35;2.88;;;2.22;;
76439;SDS011;65274;44.982;20.060;2023-04-15T07:33:01;4.18;;;2.28;;
76439;SDS011;65274;44.982;20.060;2023-04-15T07:35:27;6.03;;;2.17;;
76439;SDS011;65274;44.982;20.060;2023-04-15T07:37:54;3.60;;;2.30;;
76439;SDS011;65274;44.982;20.060;2023-04-15T07:40:20;2.72;;;1.77;;
76439;SDS011;65274;44.982;20.060;2023-04-15T07:42:46;5.93;;;3.38;;
76439;SDS011;65274;44.982;20.060;2023-04-15T07:45:13;9.15;;;5.32;;
76439;SDS011;65274;44.982;20.060;2023-04-15T07:47:40;9.57;;;3.92;;
76439;SDS011;65274;44.982;20.060;2023-04-15T07:50:06;3.33;;;2.13;;
76439;SDS011;65274;44.982;20.060;2023-04-15T07:52:33;3.88;;;2.25;;
76439;SDS011;65274;44.982;20.060;2023-04-15T07:55:04;2.35;;;2.15;;
76439;SDS011;65274;44.982;20.060;2023-04-15T07:57:31;3.50;;;2.05;;
76439;SDS011;65274;44.982;20.060;2023-04-15T07:59:57;3.45;;;1.90;;
76439;SDS011;65274;44.982;20.060;2023-04-15T08:02:23;4.38;;;3.30;;
76439;SDS011;65274;44.982;20.060;2023-04-15T08:04:49;2.35;;;1.63;;
76439;SDS011;65274;44.982;20.060;2023-04-15T08:07:16;2.67;;;1.50;;
76439;SDS011;65274;44.982;20.060;2023-04-15T08:09:42;3.03;;;1.60;;
76439;SDS011;65274;44.982;20.060;2023-04-15T08:12:08;1.77;;;1.52;;
76439;SDS011;65274;44.982;20.060;2023-04-15T08:14:37;2.35;;;1.60;;
76439;SDS011;65274;44.982;20.060;2023-04-15T08:17:03;4.75;;;1.80;;
76439;SDS011;65274;44.982;20.060;2023-04-15T08:19:29;4.07;;;2.67;;
76439;SDS011;65274;44.982;20.060;2023-04-15T08:21:55;6.72;;;3.83;;
76439;SDS011;65274;44.982;20.060;2023-04-15T08:24:22;3.35;;;2.22;;
76439;SDS011;65274;44.982;20.060;2023-04-15T08:29:16;1.50;;;1.40;;
76439;SDS011;65274;44.982;20.060;2023-04-15T08:31:42;2.97;;;1.70;;
76439;SDS011;65274;44.982;20.060;2023-04-15T08:34:09;1.98;;;1.77;;
76439;SDS011;65274;44.982;20.060;2023-04-15T08:36:36;7.30;;;3.55;;
76439;SDS011;65274;44.982;20.060;2023-04-15T08:39:02;10.57;;;6.63;;
76439;SDS011;65274;44.982;20.060;2023-04-15T08:41:31;12.48;;;7.05;;
76439;SDS011;65274;44.982;20.060;2023-04-15T08:44:03;6.72;;;4.30;;
76439;SDS011;65274;44.982;20.060;2023-04-15T08:46:30;13.68;;;9.05;;
76439;SDS011;65274;44.982;20.060;2023-04-15T08:48:58;2.97;;;1.48;;
76439;SDS011;65274;44.982;20.060;2023-04-15T08:51:24;3.90;;;1.25;;
76439;SDS011;65274;44.982;20.060;2023-04-15T08:53:51;3.35;;;2.40;;
76439;SDS011;65274;44.982;20.060;2023-04-15T08:56:17;2.53;;;2.20;;
76439;SDS011;65274;44.982;20.060;2023-04-15T08:58:44;8.25;;;6.00;;
76439;SDS011;65274;44.982;20.060;2023-04-15T09:01:11;0.93;;;0.93;;
76439;SDS011;65274;44.982;20.060;2023-04-15T09:03:38;3.67;;;1.70;;
76439;SDS011;65274;44.982;20.060;2023-04-15T09:06:05;1.30;;;1.17;;
76439;SDS011;65274;44.982;20.060;2023-04-15T09:08:31;2.08;;;0.80;;
76439;SDS011;65274;44.982;20.060;2023-04-15T09:10:59;2.13;;;1.23;;
76439;SDS011;65274;44.982;20.060;2023-04-15T09:13:25;0.98;;;0.80;;
76439;SDS011;65274;44.982;20.060;2023-04-15T09:15:52;2.72;;;1.20;;
76439;SDS011;65274;44.982;20.060;2023-04-15T09:18:28;5.47;;;1.35;;
76439;SDS011;65274;44.982;20.060;2023-04-15T09:20:54;0.60;;;0.60;;
76439;SDS011;65274;44.982;20.060;2023-04-15T09:23:21;2.15;;;1.83;;
76439;SDS011;65274;44.982;20.060;2023-04-15T09:25:47;1.58;;;1.48;;
76439;SDS011;65274;44.982;20.060;2023-04-15T09:28:13;2.08;;;0.85;;
76439;SDS011;65274;44.982;20.060;2023-04-15T09:30:41;1.48;;;0.80;;
76439;SDS011;65274;44.982;20.060;2023-04-15T09:33:13;1.02;;;0.90;;
76439;SDS011;65274;44.982;20.060;2023-04-15T09:35:39;1.83;;;1.30;;
76439;SDS011;65274;44.982;20.060;2023-04-15T09:38:06;1.23;;;1.08;;
76439;SDS011;65274;44.982;20.060;2023-04-15T09:40:33;4.65;;;3.70;;
76439;SDS011;65274;44.982;20.060;2023-04-15T09:43:00;1.40;;;1.20;;
76439;SDS011;65274;44.982;20.060;2023-04-15T09:45:26;5.78;;;2.67;;
76439;SDS011;65274;44.982;20.060;2023-04-15T09:47:53;5.90;;;4.47;;
76439;SDS011;65274;44.982;20.060;2023-04-15T09:50:19;2.15;;;1.20;;
76439;SDS011;65274;44.982;20.060;2023-04-15T09:52:45;1.20;;;0.98;;
76439;SDS011;65274;44.982;20.060;2023-04-15T09:55:12;1.30;;;0.60;;
76439;SDS011;65274;44.982;20.060;2023-04-15T10:00:07;4.20;;;2.63;;
76439;SDS011;65274;44.982;20.060;2023-04-15T10:02:35;1.10;;;1.00;;
76439;SDS011;65274;44.982;20.060;2023-04-15T10:05:01;2.65;;;2.17;;
76439;SDS011;65274;44.982;20.060;2023-04-15T10:07:28;1.85;;;0.70;;
76439;SDS011;65274;44.982;20.060;2023-04-15T10:09:55;3.30;;;1.90;;
76439;SDS011;65274;44.982;20.060;2023-04-15T10:12:21;1.42;;;1.33;;
76439;SDS011;65274;44.982;20.060;2023-04-15T10:14:51;3.33;;;1.00;;
76439;SDS011;65274;44.982;20.060;2023-04-15T10:17:17;1.25;;;0.73;;
76439;SDS011;65274;44.982;20.060;2023-04-15T10:19:46;6.45;;;1.08;;
76439;SDS011;65274;44.982;20.060;2023-04-15T10:22:13;0.80;;;0.75;;
76439;SDS011;65274;44.982;20.060;2023-04-15T10:24:39;0.90;;;0.90;;
76439;SDS011;65274;44.982;20.060;2023-04-15T10:27:05;1.23;;;0.80;;
76439;SDS011;65274;44.982;20.060;2023-04-15T10:29:31;1.98;;;1.50;;
76439;SDS011;65274;44.982;20.060;2023-04-15T10:31:58;2.63;;;1.30;;
76439;SDS011;65274;44.982;20.060;2023-04-15T10:34:24;5.10;;;0.98;;
76439;SDS011;65274;44.982;20.060;2023-04-15T10:36:54;0.80;;;0.80;;
76439;SDS011;65274;44.982;20.060;2023-04-15T10:44:25;1.00;;;0.90;;
76439;SDS011;65274;44.982;20.060;2023-04-15T10:46:51;3.63;;;2.10;;
76439;SDS011;65274;44.982;20.060;2023-04-15T10:49:23;3.85;;;2.33;;
76439;SDS011;65274;44.982;20.060;2023-04-15T10:51:56;2.63;;;1.30;;
76439;SDS011;65274;44.982;20.060;2023-04-15T10:56:52;2.42;;;1.33;;
76439;SDS011;65274;44.982;20.060;2023-04-15T10:59:31;1.38;;;1.05;;
76439;SDS011;65274;44.982;20.060;2023-04-15T11:02:01;2.35;;;1.40;;
76439;SDS011;65274;44.982;20.060;2023-04-15T11:07:13;1.77;;;1.00;;
76439;SDS011;65274;44.982;20.060;2023-04-15T11:09:39;2.08;;;1.38;;
76439;SDS011;65274;44.982;20.060;2023-04-15T11:12:05;2.20;;;1.15;;
76439;SDS011;65274;44.982;20.060;2023-04-15T11:14:39;2.90;;;1.30;;
76439;SDS011;65274;44.982;20.060;2023-04-15T11:17:08;3.30;;;2.38;;
76439;SDS011;65274;44.982;20.060;2023-04-15T11:19:34;2.10;;;1.52;;
76439;SDS011;65274;44.982;20.060;2023-04-15T11:22:08;3.38;;;1.77;;
76439;SDS011;65274;44.982;20.060;2023-04-15T11:24:35;2.53;;;1.60;;
76439;SDS011;65274;44.982;20.060;2023-04-15T11:27:01;2.38;;;1.38;;
76439;SDS011;65274;44.982;20.060;2023-04-15T11:29:28;2.97;;;0.90;;
76439;SDS011;65274;44.982;20.060;2023-04-15T11:32:07;1.00;;;1.00;;
76439;SDS011;65274;44.982;20.060;2023-04-15T11:34:34;1.23;;;1.08;;
76439;SDS011;65274;44.982;20.060;2023-04-15T11:37:03;2.33;;;1.40;;
76439;SDS011;65274;44.982;20.060;2023-04-15T11:39:30;3.05;;;1.08;;
76439;SDS011;65274;44.982;20.060;2023-04-15T11:41:56;2.75;;;1.27;;
76439;SDS011;65274;44.982;20.060;2023-04-15T11:44:22;1.63;;;1.20;;
76439;SDS011;65274;44.982;20.060;2023-04-15T11:46:48;3.90;;;1.27;;
76439;SDS011;65274;44.982;20.060;2023-04-15T11:49:27;3.10;;;1.95;;
76439;SDS011;65274;44.982;20.060;2023-04-15T11:51:54;19.73;;;10.45;;
76439;SDS011;65274;44.982;20.060;2023-04-15T11:54:20;1.20;;;1.08;;
76439;SDS011;65274;44.982;20.060;2023-04-15T11:56:50;3.42;;;1.17;;
76439;SDS011;65274;44.982;20.060;2023-04-15T11:59:17;1.33;;;1.20;;
76439;SDS011;65274;44.982;20.060;2023-04-15T12:01:43;1.05;;;0.70;;
76439;SDS011;65274;44.982;20.060;2023-04-15T12:04:15;1.33;;;1.23;;
76439;SDS011;65274;44.982;20.060;2023-04-15T12:06:43;1.38;;;0.95;;
76439;SDS011;65274;44.982;20.060;2023-04-15T12:09:10;1.15;;;0.98;;
76439;SDS011;65274;44.982;20.060;2023-04-15T12:16:32;2.97;;;0.98;;
76439;SDS011;65274;44.982;20.060;2023-04-15T12:18:59;1.80;;;0.80;;
76439;SDS011;65274;44.982;20.060;2023-04-15T12:21:26;2.47;;;1.00;;
76439;SDS011;65274;44.982;20.060;2023-04-15T12:23:56;1.35;;;0.93;;
76439;SDS011;65274;44.982;20.060;2023-04-15T12:26:26;2.22;;;1.10;;
76439;SDS011;65274;44.982;20.060;2023-04-15T12:29:02;2.05;;;1.02;;
76439;SDS011;65274;44.982;20.060;2023-04-15T12:31:29;4.25;;;1.13;;
76439;SDS011;65274;44.982;20.060;2023-04-15T12:33:56;0.70;;;0.70;;
76439;SDS011;65274;44.982;20.060;2023-04-15T12:36:22;1.50;;;0.80;;
76439;SDS011;65274;44.982;20.060;2023-04-15T12:38:48;7.82;;;1.58;;
76439;SDS011;65274;44.982;20.060;2023-04-15T12:41:15;2.70;;;1.10;;
76439;SDS011;65274;44.982;20.060;2023-04-15T12:43:42;0.77;;;0.73;;
76439;SDS011;65274;44.982;20.060;2023-04-15T12:48:35;1.52;;;0.57;;
76439;SDS011;65274;44.982;20.060;2023-04-15T12:51:01;0.80;;;0.80;;
76439;SDS011;65274;44.982;20.060;2023-04-15T12:53:27;0.80;;;0.80;;
76439;SDS011;65274;44.982;20.060;2023-04-15T12:55:53;1.85;;;1.48;;
76439;SDS011;65274;44.982;20.060;2023-04-15T12:58:19;1.17;;;1.08;;
76439;SDS011;65274;44.982;20.060;2023-04-15T13:00:46;2.35;;;1.25;;
76439;SDS011;65274;44.982;20.060;2023-04-15T13:03:12;1.23;;;0.90;;
76439;SDS011;65274;44.982;20.060;2023-04-15T13:05:38;1.95;;;1.10;;
76439;SDS011;65274;44.982;20.060;2023-04-15T13:08:05;0.75;;;0.65;;
76439;SDS011;65274;44.982;20.060;2023-04-15T13:10:31;1.88;;;1.40;;
76439;SDS011;65274;44.982;20.060;2023-04-15T13:12:57;1.75;;;1.65;;
76439;SDS011;65274;44.982;20.060;2023-04-15T13:15:24;5.63;;;3.92;;
76439;SDS011;65274;44.982;20.060;2023-04-15T13:17:50;2.00;;;1.20;;
76439;SDS011;65274;44.982;20.060;2023-04-15T13:20:16;1.95;;;1.38;;
76439;SDS011;65274;44.982;20.060;2023-04-15T13:22:42;1.88;;;1.05;;
76439;SDS011;65274;44.982;20.060;2023-04-15T13:25:08;1.52;;;0.70;;
76439;SDS011;65274;44.982;20.060;2023-04-15T13:27:34;3.17;;;1.02;;
76439;SDS011;65274;44.982;20.060;2023-04-15T13:30:00;3.58;;;1.33;;
76439;SDS011;65274;44.982;20.060;2023-04-15T13:32:27;6.05;;;1.42;;
76439;SDS011;65274;44.982;20.060;2023-04-15T13:34:53;1.20;;;1.10;;
76439;SDS011;65274;44.982;20.060;2023-04-15T13:37:21;1.70;;;0.80;;
76439;SDS011;65274;44.982;20.060;2023-04-15T13:39:50;2.78;;;1.70;;
76439;SDS011;65274;44.982;20.060;2023-04-15T13:42:16;2.97;;;1.05;;
76439;SDS011;65274;44.982;20.060;2023-04-15T13:44:42;1.13;;;1.02;;
76439;SDS011;65274;44.982;20.060;2023-04-15T13:47:08;0.95;;;0.95;;
76439;SDS011;65274;44.982;20.060;2023-04-15T13:49:35;2.97;;;1.13;;
76439;SDS011;65274;44.982;20.060;2023-04-15T13:52:01;2.03;;;1.23;;
76439;SDS011;65274;44.982;20.060;2023-04-15T13:54:27;1.45;;;0.80;;
76439;SDS011;65274;44.982;20.060;2023-04-15T13:56:53;1.42;;;0.77;;
76439;SDS011;65274;44.982;20.060;2023-04-15T14:01:47;4.05;;;2.30;;
76439;SDS011;65274;44.982;20.060;2023-04-15T14:04:13;0.88;;;0.82;;
76439;SDS011;65274;44.982;20.060;2023-04-15T14:06:39;3.42;;;1.90;;
76439;SDS011;65274;44.982;20.060;2023-04-15T14:09:05;5.03;;;2.10;;
76439;SDS011;65274;44.982;20.060;2023-04-15T14:11:31;4.72;;;2.70;;
76439;SDS011;65274;44.982;20.060;2023-04-15T14:14:00;4.68;;;1.65;;
76439;SDS011;65274;44.982;20.060;2023-04-15T14:16:26;1.67;;;1.13;;
76439;SDS011;65274;44.982;20.060;2023-04-15T14:18:52;1.52;;;1.35;;
76439;SDS011;65274;44.982;20.060;2023-04-15T14:21:18;3.15;;;1.85;;
76439;SDS011;65274;44.982;20.060;2023-04-15T14:23:45;3.72;;;1.70;;
76439;SDS011;65274;44.982;20.060;2023-04-15T14:26:11;5.90;;;2.15;;
76439;SDS011;65274;44.982;20.060;2023-04-15T14:28:38;3.03;;;2.08;;
76439;SDS011;65274;44.982;20.060;2023-04-15T14:31:04;4.55;;;1.73;;
76439;SDS011;65274;44.982;20.060;2023-04-15T14:33:30;8.07;;;4.10;;
76439;SDS011;65274;44.982;20.060;2023-04-15T14:35:57;3.53;;;2.67;;
76439;SDS011;65274;44.982;20.060;2023-04-15T14:38:23;1.15;;;1.05;;
76439;SDS011;65274;44.982;20.060;2023-04-15T14:40:49;1.40;;;1.30;;
76439;SDS011;65274;44.982;20.060;2023-04-15T14:43:15;5.82;;;2.72;;
76439;SDS011;65274;44.982;20.060;2023-04-15T14:45:41;14.10;;;5.50;;
76439;SDS011;65274;44.982;20.060;2023-04-15T14:48:08;10.05;;;6.60;;